sensor_id;sensor_type;location;lat;lon;timestamp;temperature;humidity
5578;DHT22;2811;51.900;10.734;2024-03-08T00:01:14;1.60;99.90
5578;DHT22;2811;51.900;10.734;2024-03-08T00:03:52;1.50;99.90
5578;DHT22;2811;51.900;10.734;2024-03-08T00:06:19;1.50;99.90
5578;DHT22;2811;51.900;10.734;2024-03-08T00:08:47;1.50;99.90
5578;DHT22;2811;51.900;10.734;2024-03-08T00:11:14;1.40;99.90
5578;DHT22;2811;51.900;10.734;2024-03-08T00:13:40;1.30;99.90
5578;DHT22;2811;51.900;10.734;2024-03-08T00:16:07;1.40;99.90
5578;DHT22;2811;51.900;10.734;2024-03-08T00:18:34;1.40;99.90
5578;DHT22;2811;51.900;10.734;2024-03-08T00:21:01;1.30;99.90
5578;DHT22;2811;51.900;10.734;2024-03-08T00:23:28;1.30;99.90
5578;DHT22;2811;51.900;10.734;2024-03-08T00:25:56;1.30;99.90
5578;DHT22;2811;51.900;10.734;2024-03-08T00:28:32;1.30;99.90
5578;DHT22;2811;51.900;10.734;2024-03-08T00:30:59;1.30;99.90
5578;DHT22;2811;51.900;10.734;2024-03-08T00:33:26;1.70;99.90
5578;DHT22;2811;51.900;10.734;2024-03-08T00:35:53;1.30;99.90
5578;DHT22;2811;51.900;10.734;2024-03-08T00:38:19;1.30;99.90
5578;DHT22;2811;51.900;10.734;2024-03-08T00:40:46;1.30;99.90
5578;DHT22;2811;51.900;10.734;2024-03-08T00:43:14;1.30;99.90
5578;DHT22;2811;51.900;10.734;2024-03-08T00:45:41;1.30;99.90
5578;DHT22;2811;51.900;10.734;2024-03-08T00:48:08;1.30;99.90
5578;DHT22;2811;51.900;10.734;2024-03-08T00:50:36;1.40;99.90
5578;DHT22;2811;51.900;10.734;2024-03-08T00:53:03;1.40;99.90
5578;DHT22;2811;51.900;10.734;2024-03-08T00:55:30;1.40;99.90
5578;DHT22;2811;51.900;10.734;2024-03-08T00:57:56;1.70;99.90
5578;DHT22;2811;51.900;10.734;2024-03-08T01:00:24;1.30;99.90
5578;DHT22;2811;51.900;10.734;2024-03-08T01:02:51;1.20;99.90
5578;DHT22;2811;51.900;10.734;2024-03-08T01:05:18;1.40;99.90
5578;DHT22;2811;51.900;10.734;2024-03-08T01:07:44;1.10;99.90
5578;DHT22;2811;51.900;10.734;2024-03-08T01:10:12;1.40;99.90
5578;DHT22;2811;51.900;10.734;2024-03-08T01:12:39;1.00;99.90
5578;DHT22;2811;51.900;10.734;2024-03-08T01:15:06;1.10;99.90
5578;DHT22;2811;51.900;10.734;2024-03-08T01:17:34;1.00;99.90
5578;DHT22;2811;51.900;10.734;2024-03-08T01:20:01;1.50;99.90
5578;DHT22;2811;51.900;10.734;2024-03-08T01:22:28;1.00;99.90
5578;DHT22;2811;51.900;10.734;2024-03-08T01:24:55;0.90;99.90
5578;DHT22;2811;51.900;10.734;2024-03-08T01:27:21;1.00;99.90
5578;DHT22;2811;51.900;10.734;2024-03-08T01:29:50;1.20;99.90
5578;DHT22;2811;51.900;10.734;2024-03-08T01:32:16;0.90;99.90
5578;DHT22;2811;51.900;10.734;2024-03-08T01:34:46;1.40;99.90
5578;DHT22;2811;51.900;10.734;2024-03-08T01:37:12;0.80;99.90
5578;DHT22;2811;51.900;10.734;2024-03-08T01:39:40;0.70;99.90
5578;DHT22;2811;51.900;10.734;2024-03-08T01:42:06;0.70;99.90
5578;DHT22;2811;51.900;10.734;2024-03-08T01:44:33;0.70;99.90
5578;DHT22;2811;51.900;10.734;2024-03-08T01:47:00;1.20;99.90
5578;DHT22;2811;51.900;10.734;2024-03-08T01:49:27;0.60;99.90
5578;DHT22;2811;51.900;10.734;2024-03-08T01:51:55;0.70;99.90
5578;DHT22;2811;51.900;10.734;2024-03-08T01:54:22;1.20;99.90
5578;DHT22;2811;51.900;10.734;2024-03-08T01:56:50;0.60;99.90
5578;DHT22;2811;51.900;10.734;2024-03-08T01:59:18;0.60;99.90
5578;DHT22;2811;51.900;10.734;2024-03-08T02:01:45;0.70;99.90
5578;DHT22;2811;51.900;10.734;2024-03-08T02:04:13;0.60;99.90
5578;DHT22;2811;51.900;10.734;2024-03-08T02:06:40;0.70;99.90
5578;DHT22;2811;51.900;10.734;2024-03-08T02:09:08;0.60;99.90
5578;DHT22;2811;51.900;10.734;2024-03-08T02:11:35;0.60;99.90
5578;DHT22;2811;51.900;10.734;2024-03-08T02:14:02;1.00;99.90
5578;DHT22;2811;51.900;10.734;2024-03-08T02:16:31;0.50;99.90
5578;DHT22;2811;51.900;10.734;2024-03-08T02:18:58;0.50;99.90
5578;DHT22;2811;51.900;10.734;2024-03-08T02:21:26;0.90;99.90
5578;DHT22;2811;51.900;10.734;2024-03-08T02:23:53;0.50;99.90
5578;DHT22;2811;51.900;10.734;2024-03-08T02:26:20;1.00;99.90
5578;DHT22;2811;51.900;10.734;2024-03-08T02:28:48;0.50;99.90
5578;DHT22;2811;51.900;10.734;2024-03-08T02:31:14;0.80;99.90
5578;DHT22;2811;51.900;10.734;2024-03-08T02:33:41;0.90;99.90
5578;DHT22;2811;51.900;10.734;2024-03-08T02:36:08;0.30;99.90
5578;DHT22;2811;51.900;10.734;2024-03-08T02:38:37;0.30;99.90
5578;DHT22;2811;51.900;10.734;2024-03-08T02:41:03;0.40;99.90
5578;DHT22;2811;51.900;10.734;2024-03-08T02:43:30;0.20;99.90
5578;DHT22;2811;51.900;10.734;2024-03-08T02:45:57;0.30;99.90
5578;DHT22;2811;51.900;10.734;2024-03-08T02:48:25;0.60;99.90
5578;DHT22;2811;51.900;10.734;2024-03-08T02:50:51;0.80;99.90
5578;DHT22;2811;51.900;10.734;2024-03-08T02:53:19;0.10;99.90
5578;DHT22;2811;51.900;10.734;2024-03-08T02:55:47;0.10;99.90
5578;DHT22;2811;51.900;10.734;2024-03-08T02:58:13;0.20;99.90
5578;DHT22;2811;51.900;10.734;2024-03-08T03:00:40;0.40;99.90
5578;DHT22;2811;51.900;10.734;2024-03-08T03:03:07;0.10;99.90
5578;DHT22;2811;51.900;10.734;2024-03-08T03:05:34;0.70;99.90
5578;DHT22;2811;51.900;10.734;2024-03-08T03:08:00;0.70;99.90
5578;DHT22;2811;51.900;10.734;2024-03-08T03:10:29;0.70;99.90
5578;DHT22;2811;51.900;10.734;2024-03-08T03:12:57;0.70;99.90
5578;DHT22;2811;51.900;10.734;2024-03-08T03:15:24;0.20;99.90
5578;DHT22;2811;51.900;10.734;2024-03-08T03:17:51;0.20;99.90
5578;DHT22;2811;51.900;10.734;2024-03-08T03:20:18;0.10;99.90
5578;DHT22;2811;51.900;10.734;2024-03-08T03:22:51;0.10;99.90
5578;DHT22;2811;51.900;10.734;2024-03-08T03:25:18;0.20;99.90
5578;DHT22;2811;51.900;10.734;2024-03-08T03:27:50;0.20;99.90
5578;DHT22;2811;51.900;10.734;2024-03-08T03:30:18;0.30;99.90
5578;DHT22;2811;51.900;10.734;2024-03-08T03:32:48;0.10;99.90
5578;DHT22;2811;51.900;10.734;2024-03-08T03:35:16;0.10;99.90
5578;DHT22;2811;51.900;10.734;2024-03-08T03:37:43;0.20;99.90
5578;DHT22;2811;51.900;10.734;2024-03-08T03:40:12;0.20;99.90
5578;DHT22;2811;51.900;10.734;2024-03-08T03:42:39;0.10;99.90
5578;DHT22;2811;51.900;10.734;2024-03-08T03:45:06;0.50;99.90
5578;DHT22;2811;51.900;10.734;2024-03-08T03:47:35;0.00;99.90
5578;DHT22;2811;51.900;10.734;2024-03-08T03:50:04;0.00;99.90
5578;DHT22;2811;51.900;10.734;2024-03-08T03:52:31;0.00;99.90
5578;DHT22;2811;51.900;10.734;2024-03-08T03:54:57;0.00;99.90
5578;DHT22;2811;51.900;10.734;2024-03-08T03:57:24;0.00;99.90
5578;DHT22;2811;51.900;10.734;2024-03-08T03:59:51;0.00;99.90
5578;DHT22;2811;51.900;10.734;2024-03-08T04:02:17;0.40;99.90
5578;DHT22;2811;51.900;10.734;2024-03-08T04:04:47;0.30;99.90
5578;DHT22;2811;51.900;10.734;2024-03-08T04:07:14;0.10;99.90
5578;DHT22;2811;51.900;10.734;2024-03-08T04:09:41;0.00;99.90
5578;DHT22;2811;51.900;10.734;2024-03-08T04:12:07;0.10;99.90
5578;DHT22;2811;51.900;10.734;2024-03-08T04:14:35;0.10;99.90
5578;DHT22;2811;51.900;10.734;2024-03-08T04:17:01;0.10;99.90
5578;DHT22;2811;51.900;10.734;2024-03-08T04:19:28;0.20;99.90
5578;DHT22;2811;51.900;10.734;2024-03-08T04:21:58;0.10;99.90
5578;DHT22;2811;51.900;10.734;2024-03-08T04:24:26;0.40;99.90
5578;DHT22;2811;51.900;10.734;2024-03-08T04:26:53;0.10;99.90
5578;DHT22;2811;51.900;10.734;2024-03-08T04:29:20;0.10;99.90
5578;DHT22;2811;51.900;10.734;2024-03-08T04:31:47;0.10;99.90
5578;DHT22;2811;51.900;10.734;2024-03-08T04:34:14;0.10;99.90
5578;DHT22;2811;51.900;10.734;2024-03-08T04:36:40;0.10;99.90
5578;DHT22;2811;51.900;10.734;2024-03-08T04:39:08;0.30;99.90
5578;DHT22;2811;51.900;10.734;2024-03-08T04:41:38;0.10;99.90
5578;DHT22;2811;51.900;10.734;2024-03-08T04:44:05;0.20;99.90
5578;DHT22;2811;51.900;10.734;2024-03-08T04:46:33;0.60;99.90
5578;DHT22;2811;51.900;10.734;2024-03-08T04:49:00;0.50;99.90
5578;DHT22;2811;51.900;10.734;2024-03-08T04:51:27;0.00;99.90
5578;DHT22;2811;51.900;10.734;2024-03-08T04:53:54;0.10;99.90
5578;DHT22;2811;51.900;10.734;2024-03-08T04:56:23;0.00;99.90
5578;DHT22;2811;51.900;10.734;2024-03-08T04:58:51;0.00;99.90
5578;DHT22;2811;51.900;10.734;2024-03-08T05:01:17;0.00;99.90
5578;DHT22;2811;51.900;10.734;2024-03-08T05:03:44;0.00;99.90
5578;DHT22;2811;51.900;10.734;2024-03-08T05:06:13;-0.10;99.90
5578;DHT22;2811;51.900;10.734;2024-03-08T05:08:39;0.00;99.90
5578;DHT22;2811;51.900;10.734;2024-03-08T05:11:06;-0.10;99.90
5578;DHT22;2811;51.900;10.734;2024-03-08T05:13:34;0.40;99.90
5578;DHT22;2811;51.900;10.734;2024-03-08T05:16:00;-0.20;99.90
5578;DHT22;2811;51.900;10.734;2024-03-08T05:18:27;0.10;99.90
5578;DHT22;2811;51.900;10.734;2024-03-08T05:20:54;-0.20;99.90
5578;DHT22;2811;51.900;10.734;2024-03-08T05:23:21;0.30;99.90
5578;DHT22;2811;51.900;10.734;2024-03-08T05:25:48;0.00;99.90
5578;DHT22;2811;51.900;10.734;2024-03-08T05:28:14;0.30;99.90
5578;DHT22;2811;51.900;10.734;2024-03-08T05:30:42;-0.20;99.90
5578;DHT22;2811;51.900;10.734;2024-03-08T05:33:09;-0.30;99.90
5578;DHT22;2811;51.900;10.734;2024-03-08T05:35:36;0.20;99.90
5578;DHT22;2811;51.900;10.734;2024-03-08T05:38:03;-0.30;99.90
5578;DHT22;2811;51.900;10.734;2024-03-08T05:40:30;-0.30;99.90
5578;DHT22;2811;51.900;10.734;2024-03-08T05:42:58;-0.30;99.90
5578;DHT22;2811;51.900;10.734;2024-03-08T05:45:24;-0.30;99.90
5578;DHT22;2811;51.900;10.734;2024-03-08T05:47:52;-0.30;99.90
5578;DHT22;2811;51.900;10.734;2024-03-08T05:50:19;-0.30;99.90
5578;DHT22;2811;51.900;10.734;2024-03-08T05:52:46;-0.30;99.90
5578;DHT22;2811;51.900;10.734;2024-03-08T05:55:13;-0.20;99.90
5578;DHT22;2811;51.900;10.734;2024-03-08T05:57:41;0.30;99.90
5578;DHT22;2811;51.900;10.734;2024-03-08T06:00:09;-0.30;99.90
5578;DHT22;2811;51.900;10.734;2024-03-08T06:02:37;-0.30;99.90
5578;DHT22;2811;51.900;10.734;2024-03-08T06:05:09;-0.30;99.90
5578;DHT22;2811;51.900;10.734;2024-03-08T06:07:36;0.10;99.90
5578;DHT22;2811;51.900;10.734;2024-03-08T06:10:06;-0.40;99.90
5578;DHT22;2811;51.900;10.734;2024-03-08T06:12:35;-0.40;99.90
5578;DHT22;2811;51.900;10.734;2024-03-08T06:15:06;-0.30;99.90
5578;DHT22;2811;51.900;10.734;2024-03-08T06:17:32;-0.30;99.90
5578;DHT22;2811;51.900;10.734;2024-03-08T06:19:59;-0.20;99.90
5578;DHT22;2811;51.900;10.734;2024-03-08T06:22:27;-0.20;99.90
5578;DHT22;2811;51.900;10.734;2024-03-08T06:24:56;-0.10;99.90
5578;DHT22;2811;51.900;10.734;2024-03-08T06:27:22;-0.10;99.90
5578;DHT22;2811;51.900;10.734;2024-03-08T06:29:49;-0.10;99.90
5578;DHT22;2811;51.900;10.734;2024-03-08T06:32:15;0.00;99.90
5578;DHT22;2811;51.900;10.734;2024-03-08T06:34:42;0.10;99.90
5578;DHT22;2811;51.900;10.734;2024-03-08T06:37:09;0.20;99.90
5578;DHT22;2811;51.900;10.734;2024-03-08T06:39:37;0.30;99.90
5578;DHT22;2811;51.900;10.734;2024-03-08T06:42:03;0.40;99.90
5578;DHT22;2811;51.900;10.734;2024-03-08T06:44:31;0.40;99.90
5578;DHT22;2811;51.900;10.734;2024-03-08T06:46:58;0.50;99.90
5578;DHT22;2811;51.900;10.734;2024-03-08T06:49:25;0.50;99.90
5578;DHT22;2811;51.900;10.734;2024-03-08T06:51:52;0.70;99.90
5578;DHT22;2811;51.900;10.734;2024-03-08T06:54:19;0.50;99.90
5578;DHT22;2811;51.900;10.734;2024-03-08T06:56:47;0.60;99.90
5578;DHT22;2811;51.900;10.734;2024-03-08T06:59:14;0.70;99.90
5578;DHT22;2811;51.900;10.734;2024-03-08T07:01:43;0.80;99.90
5578;DHT22;2811;51.900;10.734;2024-03-08T07:04:10;0.70;99.90
5578;DHT22;2811;51.900;10.734;2024-03-08T07:06:37;0.80;99.90
5578;DHT22;2811;51.900;10.734;2024-03-08T07:09:04;0.90;99.90
5578;DHT22;2811;51.900;10.734;2024-03-08T07:11:30;1.10;99.90
5578;DHT22;2811;51.900;10.734;2024-03-08T07:13:58;1.10;99.90
5578;DHT22;2811;51.900;10.734;2024-03-08T07:16:28;1.20;99.90
5578;DHT22;2811;51.900;10.734;2024-03-08T07:18:55;1.40;99.90
5578;DHT22;2811;51.900;10.734;2024-03-08T07:21:22;1.30;99.90
5578;DHT22;2811;51.900;10.734;2024-03-08T07:23:50;1.40;99.90
5578;DHT22;2811;51.900;10.734;2024-03-08T07:26:31;1.60;99.90
5578;DHT22;2811;51.900;10.734;2024-03-08T07:28:59;1.70;99.90
5578;DHT22;2811;51.900;10.734;2024-03-08T07:31:26;1.80;99.90
5578;DHT22;2811;51.900;10.734;2024-03-08T07:34:03;1.80;99.90
5578;DHT22;2811;51.900;10.734;2024-03-08T07:36:32;2.00;99.90
5578;DHT22;2811;51.900;10.734;2024-03-08T07:38:59;2.10;99.90
5578;DHT22;2811;51.900;10.734;2024-03-08T07:41:26;2.20;99.90
5578;DHT22;2811;51.900;10.734;2024-03-08T07:43:53;2.20;99.90
5578;DHT22;2811;51.900;10.734;2024-03-08T07:46:21;2.20;99.90
5578;DHT22;2811;51.900;10.734;2024-03-08T07:48:48;2.20;99.90
5578;DHT22;2811;51.900;10.734;2024-03-08T07:51:16;2.20;99.90
5578;DHT22;2811;51.900;10.734;2024-03-08T07:53:43;2.40;99.90
5578;DHT22;2811;51.900;10.734;2024-03-08T07:56:10;2.40;99.90
5578;DHT22;2811;51.900;10.734;2024-03-08T07:58:39;2.50;99.90
5578;DHT22;2811;51.900;10.734;2024-03-08T08:01:06;2.60;99.90
5578;DHT22;2811;51.900;10.734;2024-03-08T08:03:34;2.80;99.90
5578;DHT22;2811;51.900;10.734;2024-03-08T08:06:03;3.00;99.90
5578;DHT22;2811;51.900;10.734;2024-03-08T08:08:30;3.10;99.90
5578;DHT22;2811;51.900;10.734;2024-03-08T08:10:57;3.10;99.90
5578;DHT22;2811;51.900;10.734;2024-03-08T08:13:24;3.20;99.90
5578;DHT22;2811;51.900;10.734;2024-03-08T08:15:53;3.40;99.90
5578;DHT22;2811;51.900;10.734;2024-03-08T08:18:19;3.50;99.90
5578;DHT22;2811;51.900;10.734;2024-03-08T08:20:51;3.50;99.90
5578;DHT22;2811;51.900;10.734;2024-03-08T08:23:18;3.40;99.90
5578;DHT22;2811;51.900;10.734;2024-03-08T08:25:45;3.50;99.90
5578;DHT22;2811;51.900;10.734;2024-03-08T08:28:13;3.50;99.90
5578;DHT22;2811;51.900;10.734;2024-03-08T08:30:41;3.60;99.90
5578;DHT22;2811;51.900;10.734;2024-03-08T08:33:08;3.80;99.90
5578;DHT22;2811;51.900;10.734;2024-03-08T08:35:36;3.70;99.90
5578;DHT22;2811;51.900;10.734;2024-03-08T08:38:04;3.90;99.90
5578;DHT22;2811;51.900;10.734;2024-03-08T08:40:31;3.70;99.90
5578;DHT22;2811;51.900;10.734;2024-03-08T08:42:58;3.90;99.90
5578;DHT22;2811;51.900;10.734;2024-03-08T08:45:25;4.00;99.90
5578;DHT22;2811;51.900;10.734;2024-03-08T08:47:52;4.00;99.90
5578;DHT22;2811;51.900;10.734;2024-03-08T08:50:19;4.00;99.90
5578;DHT22;2811;51.900;10.734;2024-03-08T08:52:48;4.20;99.90
5578;DHT22;2811;51.900;10.734;2024-03-08T08:55:16;4.30;99.90
5578;DHT22;2811;51.900;10.734;2024-03-08T08:57:46;4.60;99.90
5578;DHT22;2811;51.900;10.734;2024-03-08T09:00:14;4.70;99.90
5578;DHT22;2811;51.900;10.734;2024-03-08T09:02:41;4.80;99.90
5578;DHT22;2811;51.900;10.734;2024-03-08T09:05:08;4.90;99.90
5578;DHT22;2811;51.900;10.734;2024-03-08T09:07:34;4.90;99.90
5578;DHT22;2811;51.900;10.734;2024-03-08T09:10:01;4.90;99.90
5578;DHT22;2811;51.900;10.734;2024-03-08T09:12:29;4.80;99.90
5578;DHT22;2811;51.900;10.734;2024-03-08T09:14:58;4.90;99.90
5578;DHT22;2811;51.900;10.734;2024-03-08T09:17:25;5.10;99.90
5578;DHT22;2811;51.900;10.734;2024-03-08T09:19:52;5.20;99.90
5578;DHT22;2811;51.900;10.734;2024-03-08T09:22:19;5.10;99.90
5578;DHT22;2811;51.900;10.734;2024-03-08T09:24:46;5.00;99.90
5578;DHT22;2811;51.900;10.734;2024-03-08T09:27:13;5.30;99.90
5578;DHT22;2811;51.900;10.734;2024-03-08T09:29:41;5.10;99.90
5578;DHT22;2811;51.900;10.734;2024-03-08T09:32:09;5.40;99.90
5578;DHT22;2811;51.900;10.734;2024-03-08T09:34:37;5.30;99.90
5578;DHT22;2811;51.900;10.734;2024-03-08T09:37:03;5.40;99.90
5578;DHT22;2811;51.900;10.734;2024-03-08T09:39:30;5.30;99.90
5578;DHT22;2811;51.900;10.734;2024-03-08T09:41:58;5.40;99.90
5578;DHT22;2811;51.900;10.734;2024-03-08T09:44:25;5.30;99.90
5578;DHT22;2811;51.900;10.734;2024-03-08T09:46:55;5.30;99.90
5578;DHT22;2811;51.900;10.734;2024-03-08T09:49:23;5.30;99.90
5578;DHT22;2811;51.900;10.734;2024-03-08T09:51:50;5.50;99.90
5578;DHT22;2811;51.900;10.734;2024-03-08T09:54:17;5.70;99.90
5578;DHT22;2811;51.900;10.734;2024-03-08T09:56:47;5.80;99.90
5578;DHT22;2811;51.900;10.734;2024-03-08T09:59:15;5.70;99.90
5578;DHT22;2811;51.900;10.734;2024-03-08T10:02:12;5.60;99.90
5578;DHT22;2811;51.900;10.734;2024-03-08T10:04:40;5.80;99.90
5578;DHT22;2811;51.900;10.734;2024-03-08T10:07:07;6.00;99.90
5578;DHT22;2811;51.900;10.734;2024-03-08T10:09:34;5.90;99.90
5578;DHT22;2811;51.900;10.734;2024-03-08T10:12:01;6.10;99.90
5578;DHT22;2811;51.900;10.734;2024-03-08T10:14:28;6.10;99.90
5578;DHT22;2811;51.900;10.734;2024-03-08T10:16:55;6.00;99.90
5578;DHT22;2811;51.900;10.734;2024-03-08T10:19:26;5.90;99.90
5578;DHT22;2811;51.900;10.734;2024-03-08T10:21:53;6.00;99.90
5578;DHT22;2811;51.900;10.734;2024-03-08T10:24:22;6.00;99.90
5578;DHT22;2811;51.900;10.734;2024-03-08T10:26:52;6.10;99.90
5578;DHT22;2811;51.900;10.734;2024-03-08T10:29:18;6.10;99.90
5578;DHT22;2811;51.900;10.734;2024-03-08T10:31:45;6.20;99.90
5578;DHT22;2811;51.900;10.734;2024-03-08T10:34:14;6.30;99.90
5578;DHT22;2811;51.900;10.734;2024-03-08T10:36:41;6.50;99.90
5578;DHT22;2811;51.900;10.734;2024-03-08T10:39:18;6.70;99.90
5578;DHT22;2811;51.900;10.734;2024-03-08T10:41:52;6.90;99.90
5578;DHT22;2811;51.900;10.734;2024-03-08T10:44:28;7.00;99.90
5578;DHT22;2811;51.900;10.734;2024-03-08T10:47:01;7.00;99.90
5578;DHT22;2811;51.900;10.734;2024-03-08T10:49:34;6.90;99.90
5578;DHT22;2811;51.900;10.734;2024-03-08T10:52:05;7.10;99.90
5578;DHT22;2811;51.900;10.734;2024-03-08T10:54:34;7.20;99.90
5578;DHT22;2811;51.900;10.734;2024-03-08T10:57:03;7.40;99.90
5578;DHT22;2811;51.900;10.734;2024-03-08T10:59:34;7.50;99.90
5578;DHT22;2811;51.900;10.734;2024-03-08T11:02:01;7.50;99.90
5578;DHT22;2811;51.900;10.734;2024-03-08T11:04:31;7.60;99.90
5578;DHT22;2811;51.900;10.734;2024-03-08T11:07:00;8.00;99.90
5578;DHT22;2811;51.900;10.734;2024-03-08T11:09:35;8.60;99.90
5578;DHT22;2811;51.900;10.734;2024-03-08T11:12:18;8.70;99.90
5578;DHT22;2811;51.900;10.734;2024-03-08T11:14:46;8.40;99.90
5578;DHT22;2811;51.900;10.734;2024-03-08T11:17:14;8.40;99.90
5578;DHT22;2811;51.900;10.734;2024-03-08T11:19:46;8.10;99.90
5578;DHT22;2811;51.900;10.734;2024-03-08T11:22:21;8.30;99.90
5578;DHT22;2811;51.900;10.734;2024-03-08T11:24:50;8.40;99.90
5578;DHT22;2811;51.900;10.734;2024-03-08T11:27:17;8.40;99.90
5578;DHT22;2811;51.900;10.734;2024-03-08T11:29:59;8.10;99.90
5578;DHT22;2811;51.900;10.734;2024-03-08T11:32:28;8.00;99.90
5578;DHT22;2811;51.900;10.734;2024-03-08T11:34:55;7.90;99.90
5578;DHT22;2811;51.900;10.734;2024-03-08T11:37:23;8.00;99.90
5578;DHT22;2811;51.900;10.734;2024-03-08T11:39:52;7.90;99.90
5578;DHT22;2811;51.900;10.734;2024-03-08T11:42:24;8.00;99.90
5578;DHT22;2811;51.900;10.734;2024-03-08T11:44:52;8.00;99.90
5578;DHT22;2811;51.900;10.734;2024-03-08T11:47:19;8.00;99.90
5578;DHT22;2811;51.900;10.734;2024-03-08T11:49:46;8.10;99.90
5578;DHT22;2811;51.900;10.734;2024-03-08T11:52:14;7.90;99.90
5578;DHT22;2811;51.900;10.734;2024-03-08T11:54:41;7.70;99.90
5578;DHT22;2811;51.900;10.734;2024-03-08T11:57:11;7.90;99.90
5578;DHT22;2811;51.900;10.734;2024-03-08T11:59:38;7.90;99.90
5578;DHT22;2811;51.900;10.734;2024-03-08T12:02:05;7.80;99.90
5578;DHT22;2811;51.900;10.734;2024-03-08T12:04:33;7.90;99.90
5578;DHT22;2811;51.900;10.734;2024-03-08T12:07:01;8.10;99.90
5578;DHT22;2811;51.900;10.734;2024-03-08T12:09:34;8.10;99.90
5578;DHT22;2811;51.900;10.734;2024-03-08T12:12:01;8.20;99.90
5578;DHT22;2811;51.900;10.734;2024-03-08T12:14:30;8.40;99.90
5578;DHT22;2811;51.900;10.734;2024-03-08T12:16:58;8.50;99.90
5578;DHT22;2811;51.900;10.734;2024-03-08T12:19:26;8.40;99.90
5578;DHT22;2811;51.900;10.734;2024-03-08T12:21:54;8.30;99.90
5578;DHT22;2811;51.900;10.734;2024-03-08T12:24:20;8.20;99.90
5578;DHT22;2811;51.900;10.734;2024-03-08T12:26:47;8.30;99.90
5578;DHT22;2811;51.900;10.734;2024-03-08T12:29:16;8.30;99.90
5578;DHT22;2811;51.900;10.734;2024-03-08T12:31:46;8.50;99.90
5578;DHT22;2811;51.900;10.734;2024-03-08T12:34:13;8.50;99.90
5578;DHT22;2811;51.900;10.734;2024-03-08T12:36:47;8.60;99.90
5578;DHT22;2811;51.900;10.734;2024-03-08T12:39:19;8.60;99.90
5578;DHT22;2811;51.900;10.734;2024-03-08T12:41:48;8.60;99.90
5578;DHT22;2811;51.900;10.734;2024-03-08T12:44:17;8.70;99.90
5578;DHT22;2811;51.900;10.734;2024-03-08T12:46:45;8.80;99.90
5578;DHT22;2811;51.900;10.734;2024-03-08T12:49:12;8.80;99.90
5578;DHT22;2811;51.900;10.734;2024-03-08T12:51:42;8.90;99.90
5578;DHT22;2811;51.900;10.734;2024-03-08T12:54:09;9.10;99.90
5578;DHT22;2811;51.900;10.734;2024-03-08T12:56:36;9.20;99.90
5578;DHT22;2811;51.900;10.734;2024-03-08T12:59:04;9.20;99.90
5578;DHT22;2811;51.900;10.734;2024-03-08T13:01:31;9.00;99.90
5578;DHT22;2811;51.900;10.734;2024-03-08T13:04:00;8.90;99.90
5578;DHT22;2811;51.900;10.734;2024-03-08T13:06:27;8.90;99.90
5578;DHT22;2811;51.900;10.734;2024-03-08T13:08:54;8.80;99.90
5578;DHT22;2811;51.900;10.734;2024-03-08T13:11:22;8.80;99.90
5578;DHT22;2811;51.900;10.734;2024-03-08T13:13:50;8.80;99.90
5578;DHT22;2811;51.900;10.734;2024-03-08T13:16:16;8.70;99.90
5578;DHT22;2811;51.900;10.734;2024-03-08T13:18:44;8.70;99.90
5578;DHT22;2811;51.900;10.734;2024-03-08T13:21:15;8.90;99.90
5578;DHT22;2811;51.900;10.734;2024-03-08T13:23:45;9.10;99.90
5578;DHT22;2811;51.900;10.734;2024-03-08T13:26:15;9.30;99.90
5578;DHT22;2811;51.900;10.734;2024-03-08T13:28:43;9.10;99.90
5578;DHT22;2811;51.900;10.734;2024-03-08T13:31:10;9.10;99.90
5578;DHT22;2811;51.900;10.734;2024-03-08T13:33:37;9.10;99.90
5578;DHT22;2811;51.900;10.734;2024-03-08T13:36:05;9.20;99.90
5578;DHT22;2811;51.900;10.734;2024-03-08T13:38:42;9.10;99.90
5578;DHT22;2811;51.900;10.734;2024-03-08T13:41:09;9.10;99.90
5578;DHT22;2811;51.900;10.734;2024-03-08T13:43:36;9.00;99.90
5578;DHT22;2811;51.900;10.734;2024-03-08T13:46:03;9.00;99.90
5578;DHT22;2811;51.900;10.734;2024-03-08T13:48:31;9.00;99.90
5578;DHT22;2811;51.900;10.734;2024-03-08T13:50:58;9.10;99.90
5578;DHT22;2811;51.900;10.734;2024-03-08T13:53:25;9.10;99.90
5578;DHT22;2811;51.900;10.734;2024-03-08T13:55:53;9.10;99.90
5578;DHT22;2811;51.900;10.734;2024-03-08T13:58:20;9.10;99.90
5578;DHT22;2811;51.900;10.734;2024-03-08T14:00:47;9.10;99.90
5578;DHT22;2811;51.900;10.734;2024-03-08T14:03:14;9.10;99.90
5578;DHT22;2811;51.900;10.734;2024-03-08T14:05:41;9.00;99.90
5578;DHT22;2811;51.900;10.734;2024-03-08T14:08:08;9.10;99.90
5578;DHT22;2811;51.900;10.734;2024-03-08T14:10:35;9.10;99.90
5578;DHT22;2811;51.900;10.734;2024-03-08T14:13:04;8.90;99.90
5578;DHT22;2811;51.900;10.734;2024-03-08T14:15:32;8.90;99.90
5578;DHT22;2811;51.900;10.734;2024-03-08T14:18:00;9.00;99.90
5578;DHT22;2811;51.900;10.734;2024-03-08T14:20:27;9.00;99.90
5578;DHT22;2811;51.900;10.734;2024-03-08T14:22:54;9.10;99.90
5578;DHT22;2811;51.900;10.734;2024-03-08T14:25:23;9.00;99.90
5578;DHT22;2811;51.900;10.734;2024-03-08T14:27:50;9.00;99.90
5578;DHT22;2811;51.900;10.734;2024-03-08T14:30:20;8.90;99.90
5578;DHT22;2811;51.900;10.734;2024-03-08T14:33:00;8.80;99.90
5578;DHT22;2811;51.900;10.734;2024-03-08T14:35:26;8.70;99.90
5578;DHT22;2811;51.900;10.734;2024-03-08T14:37:55;8.70;99.90
5578;DHT22;2811;51.900;10.734;2024-03-08T14:40:22;8.70;99.90
5578;DHT22;2811;51.900;10.734;2024-03-08T14:42:49;8.80;99.90
5578;DHT22;2811;51.900;10.734;2024-03-08T14:45:16;8.80;99.90
5578;DHT22;2811;51.900;10.734;2024-03-08T14:47:46;8.80;99.90
5578;DHT22;2811;51.900;10.734;2024-03-08T14:50:15;8.60;99.90
5578;DHT22;2811;51.900;10.734;2024-03-08T14:52:42;8.70;99.90
5578;DHT22;2811;51.900;10.734;2024-03-08T14:55:09;8.70;99.90
5578;DHT22;2811;51.900;10.734;2024-03-08T14:57:39;8.70;99.90
5578;DHT22;2811;51.900;10.734;2024-03-08T15:00:07;8.70;99.90
5578;DHT22;2811;51.900;10.734;2024-03-08T15:02:41;8.60;99.90
5578;DHT22;2811;51.900;10.734;2024-03-08T15:05:09;8.60;99.90
5578;DHT22;2811;51.900;10.734;2024-03-08T15:07:37;8.60;99.90
5578;DHT22;2811;51.900;10.734;2024-03-08T15:10:05;8.60;99.90
5578;DHT22;2811;51.900;10.734;2024-03-08T15:12:36;8.60;99.90
5578;DHT22;2811;51.900;10.734;2024-03-08T15:15:05;8.70;99.90
5578;DHT22;2811;51.900;10.734;2024-03-08T15:17:33;8.50;99.90
5578;DHT22;2811;51.900;10.734;2024-03-08T15:20:00;8.50;99.90
5578;DHT22;2811;51.900;10.734;2024-03-08T15:22:28;8.60;99.90
5578;DHT22;2811;51.900;10.734;2024-03-08T15:24:54;8.50;99.90
5578;DHT22;2811;51.900;10.734;2024-03-08T15:27:23;8.50;99.90
5578;DHT22;2811;51.900;10.734;2024-03-08T15:29:50;8.50;99.90
5578;DHT22;2811;51.900;10.734;2024-03-08T15:32:21;8.50;99.90
5578;DHT22;2811;51.900;10.734;2024-03-08T15:34:48;8.40;99.90
5578;DHT22;2811;51.900;10.734;2024-03-08T15:37:15;8.40;99.90
5578;DHT22;2811;51.900;10.734;2024-03-08T15:39:43;8.40;99.90
5578;DHT22;2811;51.900;10.734;2024-03-08T15:42:11;8.40;99.90
5578;DHT22;2811;51.900;10.734;2024-03-08T15:44:37;8.30;99.90
5578;DHT22;2811;51.900;10.734;2024-03-08T15:47:06;8.30;99.90
5578;DHT22;2811;51.900;10.734;2024-03-08T15:49:36;7.60;99.90
5578;DHT22;2811;51.900;10.734;2024-03-08T15:52:03;8.30;99.90
5578;DHT22;2811;51.900;10.734;2024-03-08T15:54:31;8.20;99.90
5578;DHT22;2811;51.900;10.734;2024-03-08T15:56:59;8.10;99.90
5578;DHT22;2811;51.900;10.734;2024-03-08T15:59:28;8.10;99.90
5578;DHT22;2811;51.900;10.734;2024-03-08T16:01:59;8.10;99.90
5578;DHT22;2811;51.900;10.734;2024-03-08T16:04:25;8.10;99.90